Time;durP1;ratioP1;P1;durP2;ratioP2;P2;SDS_P1;SDS_P2;PMS_P1;PMS_P2;Temp;Humidity;BMP_temperature;BMP_pressure;BME280_temperature;BME280_humidity;BME280_pressure;Samples;Min_cycle;Max_cycle;Signal;HPM_P1;HPM_P2
2022/06/13 00:00:27;;;;;;;1.57;1.17;;;;;;;;;;5017684;28;20205;-62
2022/06/13 00:03:14;;;;;;;0.83;0.83;;;;;;;;;;5029187;28;20206;-62
2022/06/13 00:06:01;;;;;;;2.50;1.30;;;;;;;;;;5015352;28;20205;-62
2022/06/13 00:08:49;;;;;;;1.30;1.20;;;;;;;;;;5024222;28;20270;-62
2022/06/13 00:11:36;;;;;;;2.33;1.23;;;;;;;;;;5027292;28;20230;-61
2022/06/13 00:14:25;;;;;;;1.60;1.07;;;;;;;;;;5019637;28;20205;-62
2022/06/13 00:17:12;;;;;;;2.57;1.13;;;;;;;;;;5021647;28;20209;-62
2022/06/13 00:19:59;;;;;;;1.03;0.90;;;;;;;;;;5018579;28;20207;-62
2022/06/13 00:22:46;;;;;;;1.40;0.97;;;;;;;;;;5021529;28;20516;-62
2022/06/13 00:25:33;;;;;;;1.00;1.00;;;;;;;;;;5023195;28;20210;-62
2022/06/13 00:28:20;;;;;;;1.47;1.10;;;;;;;;;;5029644;28;20232;-62
2022/06/13 00:31:08;;;;;;;2.03;0.97;;;;;;;;;;5040825;28;20225;-62
2022/06/13 00:33:55;;;;;;;1.10;1.00;;;;;;;;;;5040730;28;20212;-62
2022/06/13 00:36:42;;;;;;;1.27;1.00;;;;;;;;;;5036844;28;20217;-62
2022/06/13 00:39:29;;;;;;;1.83;1.10;;;;;;;;;;5038878;28;20580;-62
2022/06/13 00:42:18;;;;;;;2.20;1.17;;;;;;;;;;5040016;28;20243;-62
2022/06/13 00:45:11;;;;;;;1.97;1.10;;;;;;;;;;5042858;28;20304;-62
2022/06/13 00:47:59;;;;;;;1.50;0.93;;;;;;;;;;5033752;28;20242;-62
2022/06/13 00:50:50;;;;;;;1.00;0.87;;;;;;;;;;5035905;28;20297;-62
2022/06/13 00:53:38;;;;;;;1.90;1.03;;;;;;;;;;5040598;28;20229;-62
2022/06/13 00:56:29;;;;;;;1.73;1.20;;;;;;;;;;5040858;28;20204;-62
2022/06/13 00:59:21;;;;;;;1.13;1.00;;;;;;;;;;5038695;28;20298;-62
2022/06/13 01:02:08;;;;;;;1.87;1.10;;;;;;;;;;5040136;28;20228;-62
2022/06/13 01:04:59;;;;;;;0.87;0.87;;;;;;;;;;5039417;28;20212;-62
2022/06/13 01:07:47;;;;;;;1.83;0.90;;;;;;;;;;5036261;28;20216;-62
2022/06/13 01:13:57;;;;;;;1.57;0.90;;;;;;;;;;5040126;28;20213;-61
2022/06/13 01:16:57;;;;;;;2.00;1.23;;;;;;;;;;5039312;28;20213;-62
2022/06/13 01:20:16;;;;;;;1.13;0.97;;;;;;;;;;5041220;28;20215;-62
2022/06/13 01:23:27;;;;;;;1.47;1.10;;;;;;;;;;5020961;28;20209;-62
2022/06/13 01:26:45;;;;;;;1.50;1.00;;;;;;;;;;5045942;28;20283;-62
2022/06/13 01:29:54;;;;;;;1.90;1.03;;;;;;;;;;5043350;28;20736;-62
2022/06/13 01:32:56;;;;;;;3.30;1.33;;;;;;;;;;5042839;28;20221;-62
2022/06/13 01:35:54;;;;;;;1.50;1.40;;;;;;;;;;5042493;28;20668;-62
2022/06/13 01:38:54;;;;;;;1.20;1.00;;;;;;;;;;5039940;28;20214;-62
2022/06/13 01:41:50;;;;;;;1.40;1.00;;;;;;;;;;5045329;28;20220;-61
2022/06/13 01:44:45;;;;;;;2.13;1.50;;;;;;;;;;5044457;28;20209;-62
2022/06/13 01:47:38;;;;;;;1.23;1.13;;;;;;;;;;5046929;28;20240;-62
2022/06/13 01:50:31;;;;;;;1.83;1.10;;;;;;;;;;5041851;28;20220;-62
2022/06/13 01:53:28;;;;;;;1.83;1.17;;;;;;;;;;5044456;28;20855;-62
2022/06/13 01:56:18;;;;;;;1.30;1.10;;;;;;;;;;5043224;28;20213;-62
2022/06/13 01:59:14;;;;;;;1.60;1.27;;;;;;;;;;5044311;28;20201;-62
2022/06/13 02:02:06;;;;;;;1.67;1.20;;;;;;;;;;5040426;28;20687;-62
2022/06/13 02:05:00;;;;;;;0.90;0.90;;;;;;;;;;5042426;28;20283;-62
2022/06/13 02:07:53;;;;;;;1.40;0.93;;;;;;;;;;5042572;28;20201;-66
2022/06/13 02:10:45;;;;;;;1.20;1.10;;;;;;;;;;5042832;28;20214;-62
2022/06/13 02:13:35;;;;;;;2.47;1.17;;;;;;;;;;5041046;28;20222;-62
2022/06/13 02:16:26;;;;;;;1.77;1.30;;;;;;;;;;5044034;28;20813;-62
2022/06/13 02:19:19;;;;;;;4.07;1.50;;;;;;;;;;5039351;28;20224;-62
2022/06/13 02:22:09;;;;;;;2.17;1.40;;;;;;;;;;5041697;28;20220;-62
2022/06/13 02:25:02;;;;;;;2.93;1.20;;;;;;;;;;5039787;28;20201;-62
2022/06/13 02:27:53;;;;;;;1.30;1.20;;;;;;;;;;5045365;28;20232;-63
2022/06/13 02:30:45;;;;;;;2.67;1.50;;;;;;;;;;5040816;28;20228;-62
2022/06/13 02:33:38;;;;;;;1.93;1.40;;;;;;;;;;5045900;28;20665;-62
2022/06/13 02:36:32;;;;;;;1.70;1.30;;;;;;;;;;5043307;28;20208;-62
2022/06/13 02:39:25;;;;;;;2.40;1.40;;;;;;;;;;5036149;28;20208;-62
2022/06/13 02:42:19;;;;;;;3.27;1.40;;;;;;;;;;5041820;28;20208;-61
2022/06/13 02:45:14;;;;;;;2.87;1.70;;;;;;;;;;5039446;28;20246;-62
2022/06/13 02:48:10;;;;;;;1.87;1.30;;;;;;;;;;5047499;28;20606;-61
2022/06/13 02:51:01;;;;;;;2.80;1.50;;;;;;;;;;5040545;28;20219;-62
2022/06/13 02:53:58;;;;;;;2.90;1.47;;;;;;;;;;5038768;28;20560;-62
2022/06/13 03:00:20;;;;;;;1.67;1.10;;;;;;;;;;5040232;28;20289;-62
2022/06/13 03:03:16;;;;;;;1.83;1.23;;;;;;;;;;5043371;28;20204;-62
2022/06/13 03:06:07;;;;;;;2.97;1.40;;;;;;;;;;5040421;28;20215;-62
2022/06/13 03:09:01;;;;;;;2.17;1.10;;;;;;;;;;5038926;28;20209;-62
2022/06/13 03:12:00;;;;;;;1.33;1.20;;;;;;;;;;5036118;28;20223;-62
2022/06/13 03:14:56;;;;;;;1.77;1.33;;;;;;;;;;5037913;28;20216;-62
2022/06/13 03:17:50;;;;;;;2.23;1.50;;;;;;;;;;5037886;28;20266;-62
2022/06/13 03:20:45;;;;;;;2.80;1.40;;;;;;;;;;5043167;28;20208;-63
2022/06/13 03:23:36;;;;;;;2.20;1.60;;;;;;;;;;5044931;28;20219;-62
2022/06/13 03:26:26;;;;;;;1.47;1.23;;;;;;;;;;5044332;28;20212;-62
2022/06/13 03:29:20;;;;;;;2.67;1.20;;;;;;;;;;5040058;28;20243;-62
2022/06/13 03:32:13;;;;;;;2.47;1.33;;;;;;;;;;5037256;28;20213;-62
2022/06/13 03:35:05;;;;;;;2.00;1.43;;;;;;;;;;5041859;28;20244;-62
2022/06/13 03:37:52;;;;;;;1.97;1.40;;;;;;;;;;5038169;28;20213;-62
2022/06/13 03:40:42;;;;;;;2.63;1.33;;;;;;;;;;5039580;28;20208;-62
2022/06/13 03:43:35;;;;;;;1.70;1.33;;;;;;;;;;5042847;28;20216;-62
2022/06/13 03:46:27;;;;;;;1.57;1.30;;;;;;;;;;5044416;28;20213;-62
2022/06/13 03:49:19;;;;;;;1.60;1.13;;;;;;;;;;5042681;28;20216;-63
2022/06/13 03:52:12;;;;;;;2.20;1.50;;;;;;;;;;5035330;28;20244;-62
2022/06/13 03:55:05;;;;;;;1.83;1.50;;;;;;;;;;5040281;28;20606;-62
2022/06/13 03:57:58;;;;;;;2.20;1.40;;;;;;;;;;5041080;28;20210;-62
2022/06/13 04:00:49;;;;;;;2.00;1.40;;;;;;;;;;5037603;28;20227;-62
2022/06/13 04:03:37;;;;;;;1.60;1.23;;;;;;;;;;5041024;28;20207;-62
2022/06/13 04:06:37;;;;;;;2.10;1.70;;;;;;;;;;5039232;28;20784;-62
2022/06/13 04:09:28;;;;;;;2.50;1.47;;;;;;;;;;5040703;28;20206;-62
2022/06/13 04:12:35;;;;;;;3.23;1.53;;;;;;;;;;5035612;28;20227;-62
2022/06/13 04:16:02;;;;;;;2.47;1.73;;;;;;;;;;5040638;28;20273;-62
2022/06/13 04:19:04;;;;;;;2.43;1.70;;;;;;;;;;5035570;28;20215;-62
2022/06/13 04:21:59;;;;;;;1.97;1.57;;;;;;;;;;5044696;28;20213;-62
2022/06/13 04:24:58;;;;;;;1.77;1.30;;;;;;;;;;5038929;28;20344;-62
2022/06/13 04:27:50;;;;;;;2.63;1.63;;;;;;;;;;5037515;28;20271;-62
2022/06/13 04:30:38;;;;;;;2.87;1.70;;;;;;;;;;5035100;28;20216;-62
2022/06/13 04:33:30;;;;;;;2.10;1.33;;;;;;;;;;5034989;28;20307;-62
2022/06/13 04:36:19;;;;;;;3.23;1.87;;;;;;;;;;5032691;28;20211;-62
2022/06/13 04:39:09;;;;;;;2.87;1.77;;;;;;;;;;5038552;28;20768;-62
2022/06/13 04:42:01;;;;;;;1.47;1.30;;;;;;;;;;5041048;28;20202;-62
2022/06/13 04:44:48;;;;;;;2.17;1.67;;;;;;;;;;5038813;28;20289;-62
2022/06/13 04:47:37;;;;;;;2.20;1.37;;;;;;;;;;5039462;28;20221;-62
2022/06/13 04:50:30;;;;;;;3.13;1.60;;;;;;;;;;5045230;28;20580;-62
2022/06/13 04:53:21;;;;;;;3.23;1.53;;;;;;;;;;5040724;28;20231;-62
2022/06/13 04:56:09;;;;;;;1.70;1.40;;;;;;;;;;5035972;28;20203;-62
2022/06/13 04:58:59;;;;;;;2.07;1.53;;;;;;;;;;5036372;28;20202;-61
2022/06/13 05:01:48;;;;;;;1.60;1.30;;;;;;;;;;5040779;28;20230;-62
2022/06/13 05:04:35;;;;;;;2.60;1.50;;;;;;;;;;5039382;28;20213;-62
2022/06/13 05:07:23;;;;;;;3.07;1.67;;;;;;;;;;5038415;28;20295;-61
2022/06/13 05:10:17;;;;;;;1.57;1.30;;;;;;;;;;5040685;28;20207;-63
2022/06/13 05:13:04;;;;;;;2.70;1.40;;;;;;;;;;5044563;28;20239;-62
2022/06/13 05:16:01;;;;;;;2.57;1.43;;;;;;;;;;5035929;28;20798;-62
2022/06/13 05:19:03;;;;;;;1.60;1.10;;;;;;;;;;5037474;28;20221;-63
2022/06/13 05:21:59;;;;;;;1.80;1.50;;;;;;;;;;5040751;28;20657;-62
2022/06/13 05:25:00;;;;;;;1.33;1.23;;;;;;;;;;5028222;28;20215;-62
2022/06/13 05:27:47;;;;;;;3.00;1.37;;;;;;;;;;5039047;28;20233;-62
2022/06/13 05:30:34;;;;;;;2.53;1.60;;;;;;;;;;5034018;28;20210;-62
2022/06/13 05:33:25;;;;;;;1.40;1.30;;;;;;;;;;5041315;28;20226;-62
2022/06/13 05:36:16;;;;;;;3.10;1.30;;;;;;;;;;5038425;28;20576;-62
2022/06/13 05:39:07;;;;;;;1.83;1.30;;;;;;;;;;5038346;28;20214;-62
2022/06/13 05:41:54;;;;;;;1.83;1.43;;;;;;;;;;5040402;28;20281;-62
2022/06/13 05:44:41;;;;;;;1.63;1.27;;;;;;;;;;5037631;28;20222;-62
2022/06/13 05:47:28;;;;;;;2.33;1.27;;;;;;;;;;5040497;28;20219;-62
2022/06/13 05:50:19;;;;;;;1.63;1.53;;;;;;;;;;5041050;28;20204;-62
2022/06/13 05:53:06;;;;;;;2.80;1.47;;;;;;;;;;5037080;28;20298;-62
2022/06/13 05:55:56;;;;;;;1.87;1.40;;;;;;;;;;5037284;28;20295;-62
2022/06/13 05:58:43;;;;;;;2.10;1.40;;;;;;;;;;5038945;28;20219;-62
2022/06/13 06:01:32;;;;;;;1.93;1.13;;;;;;;;;;5040056;28;20238;-61
2022/06/13 06:04:19;;;;;;;2.07;1.27;;;;;;;;;;5040770;28;20211;-62
2022/06/13 06:07:08;;;;;;;1.57;1.03;;;;;;;;;;5042397;28;20203;-62
2022/06/13 06:09:55;;;;;;;2.73;1.40;;;;;;;;;;5037048;28;20301;-62
2022/06/13 06:12:42;;;;;;;1.43;1.00;;;;;;;;;;5041544;28;20228;-62
2022/06/13 06:15:30;;;;;;;1.57;1.10;;;;;;;;;;5039899;28;20204;-63
2022/06/13 06:18:20;;;;;;;1.50;1.13;;;;;;;;;;5041162;28;20742;-62
2022/06/13 06:21:07;;;;;;;1.73;1.20;;;;;;;;;;5038778;28;20820;-62
2022/06/13 06:23:55;;;;;;;1.83;1.03;;;;;;;;;;5040231;28;20201;-62
2022/06/13 06:26:42;;;;;;;1.37;1.20;;;;;;;;;;5045919;28;20681;-62
2022/06/13 06:29:29;;;;;;;1.03;0.90;;;;;;;;;;5040984;28;20237;-63
2022/06/13 06:32:16;;;;;;;1.30;1.00;;;;;;;;;;5037979;28;20214;-62
2022/06/13 06:35:04;;;;;;;1.38;1.00;;;;;;;;;;5040731;28;20223;-63
2022/06/13 06:37:53;;;;;;;1.00;0.98;;;;;;;;;;5047519;28;20567;-62
2022/06/13 06:40:42;;;;;;;1.47;1.00;;;;;;;;;;5037895;28;20626;-62
2022/06/13 06:43:29;;;;;;;1.73;1.08;;;;;;;;;;5040585;28;20207;-62
2022/06/13 06:46:16;;;;;;;1.33;0.90;;;;;;;;;;5040215;28;20204;-62
2022/06/13 06:49:03;;;;;;;1.40;1.05;;;;;;;;;;5043106;28;20270;-62
2022/06/13 06:51:50;;;;;;;3.17;1.00;;;;;;;;;;5042775;28;20203;-62
2022/06/13 07:00:53;;;;;;;1.30;1.17;;;;;;;;;;4976547;28;20356;-62
2022/06/13 07:03:40;;;;;;;1.00;0.90;;;;;;;;;;5041792;28;20211;-62
2022/06/13 07:06:27;;;;;;;2.30;1.13;;;;;;;;;;5040777;28;20235;-62
2022/06/13 07:09:14;;;;;;;1.47;1.10;;;;;;;;;;5046222;28;20217;-62
2022/06/13 07:12:01;;;;;;;1.90;1.20;;;;;;;;;;5042506;28;20213;-62
2022/06/13 07:14:50;;;;;;;1.33;1.15;;;;;;;;;;5038819;28;20213;-62
2022/06/13 07:17:37;;;;;;;3.53;0.80;;;;;;;;;;5039003;28;20208;-62
2022/06/13 07:20:24;;;;;;;1.38;0.70;;;;;;;;;;5036670;28;20584;-60
2022/06/13 07:23:11;;;;;;;0.90;0.80;;;;;;;;;;5041595;28;21484;-61
2022/06/13 07:25:58;;;;;;;1.92;1.05;;;;;;;;;;5044466;28;20214;-61
2022/06/13 07:28:45;;;;;;;1.27;1.17;;;;;;;;;;5020108;28;20232;-59
2022/06/13 07:31:37;;;;;;;1.33;0.85;;;;;;;;;;5019745;28;20217;-60
2022/06/13 07:34:27;;;;;;;1.52;1.08;;;;;;;;;;5024077;28;20233;-60
2022/06/13 07:38:16;;;;;;;1.05;0.93;;;;;;;;;;5020013;28;20667;-60
2022/06/13 07:40:25;;;;;;;0.80;0.75;;;;;;;;;;5018430;28;20209;-59
2022/06/13 07:43:22;;;;;;;1.10;1.00;;;;;;;;;;5017074;28;20217;-59
2022/06/13 07:46:11;;;;;;;1.30;1.05;;;;;;;;;;5019173;28;20201;-59
2022/06/13 07:49:00;;;;;;;1.33;0.90;;;;;;;;;;5020865;28;20676;-59
2022/06/13 07:51:48;;;;;;;1.10;0.88;;;;;;;;;;5022234;28;20712;-59
2022/06/13 07:54:35;;;;;;;2.00;0.90;;;;;;;;;;5023769;28;20228;-61
2022/06/13 07:57:22;;;;;;;1.20;0.70;;;;;;;;;;5020846;28;20212;-62
2022/06/13 08:00:13;;;;;;;1.30;0.60;;;;;;;;;;5015307;28;20204;-61
2022/06/13 08:03:01;;;;;;;0.75;0.50;;;;;;;;;;5019180;28;20208;-62
2022/06/13 08:05:49;;;;;;;1.20;0.70;;;;;;;;;;5018026;28;20739;-59
2022/06/13 08:08:36;;;;;;;2.58;0.90;;;;;;;;;;5023717;28;20572;-59
2022/06/13 08:11:30;;;;;;;2.22;0.95;;;;;;;;;;5020857;28;20204;-61
2022/06/13 08:14:18;;;;;;;0.75;0.63;;;;;;;;;;5015030;28;20217;-61
2022/06/13 08:17:05;;;;;;;0.60;0.60;;;;;;;;;;5017976;28;20208;-61
2022/06/13 08:19:52;;;;;;;1.60;1.10;;;;;;;;;;5019370;28;20546;-61
2022/06/13 08:22:46;;;;;;;1.05;0.80;;;;;;;;;;5017888;28;20215;-61
2022/06/13 08:25:35;;;;;;;1.33;0.90;;;;;;;;;;5020094;28;20213;-62
2022/06/13 08:28:22;;;;;;;1.45;0.80;;;;;;;;;;5026259;28;20228;-59
2022/06/13 08:31:12;;;;;;;1.33;0.98;;;;;;;;;;5037337;28;20211;-59
2022/06/13 08:33:59;;;;;;;0.82;0.80;;;;;;;;;;5040517;28;20233;-61
2022/06/13 08:36:46;;;;;;;1.17;0.80;;;;;;;;;;5037779;28;20208;-61
2022/06/13 08:39:35;;;;;;;1.13;0.90;;;;;;;;;;5042050;28;20215;-61
2022/06/13 08:42:31;;;;;;;0.88;0.88;;;;;;;;;;5041378;28;20236;-61
2022/06/13 08:45:22;;;;;;;1.17;0.85;;;;;;;;;;5037239;28;20203;-61
2022/06/13 08:48:17;;;;;;;1.40;0.60;;;;;;;;;;5041529;28;20223;-60
2022/06/13 08:51:09;;;;;;;0.80;0.57;;;;;;;;;;5041898;28;20221;-61
2022/06/13 08:53:59;;;;;;;1.02;0.90;;;;;;;;;;5039272;28;20752;-61
2022/06/13 08:56:50;;;;;;;1.67;1.02;;;;;;;;;;5037336;28;20210;-60
2022/06/13 08:59:43;;;;;;;1.40;0.82;;;;;;;;;;5040480;28;20569;-60
2022/06/13 09:02:37;;;;;;;0.85;0.85;;;;;;;;;;5041445;28;20215;-61
2022/06/13 09:05:33;;;;;;;1.27;1.00;;;;;;;;;;5042822;28;20211;-61
2022/06/13 09:08:26;;;;;;;1.85;0.68;;;;;;;;;;5047583;28;20873;-60
2022/06/13 09:11:19;;;;;;;1.10;0.80;;;;;;;;;;5048905;28;20203;-60
2022/06/13 09:14:13;;;;;;;1.27;0.80;;;;;;;;;;5039732;28;20642;-61
2022/06/13 09:17:10;;;;;;;1.83;0.70;;;;;;;;;;5037603;28;20211;-61
2022/06/13 09:20:03;;;;;;;0.95;0.60;;;;;;;;;;5037055;28;20203;-60
2022/06/13 09:23:10;;;;;;;1.33;0.80;;;;;;;;;;5044055;28;20562;-60
2022/06/13 09:26:04;;;;;;;1.88;1.00;;;;;;;;;;5044209;28;20258;-60
2022/06/13 09:28:56;;;;;;;1.10;0.98;;;;;;;;;;5044022;28;20247;-61
2022/06/13 09:31:48;;;;;;;0.90;0.90;;;;;;;;;;5040371;28;20216;-61
2022/06/13 09:34:40;;;;;;;0.98;0.88;;;;;;;;;;5033130;28;20270;-61
2022/06/13 09:37:32;;;;;;;1.25;0.90;;;;;;;;;;5045878;28;20223;-61
2022/06/13 09:40:21;;;;;;;0.75;0.68;;;;;;;;;;5048160;28;20211;-60
2022/06/13 09:43:22;;;;;;;0.63;0.63;;;;;;;;;;5046309;28;20208;-61
2022/06/13 09:46:18;;;;;;;0.60;0.60;;;;;;;;;;5040560;28;20665;-60
2022/06/13 09:49:15;;;;;;;1.52;0.90;;;;;;;;;;5045258;28;20204;-61
2022/06/13 09:52:06;;;;;;;1.15;0.90;;;;;;;;;;5041402;28;20656;-61
2022/06/13 09:55:06;;;;;;;0.90;0.82;;;;;;;;;;5039343;28;20234;-63
2022/06/13 09:58:06;;;;;;;0.77;0.60;;;;;;;;;;5042340;28;20216;-61
2022/06/13 10:01:05;;;;;;;1.25;0.85;;;;;;;;;;5044761;28;20321;-61
2022/06/13 10:03:59;;;;;;;0.85;0.70;;;;;;;;;;5034657;28;20212;-61
2022/06/13 10:06:53;;;;;;;0.80;0.70;;;;;;;;;;5050335;28;20211;-61
2022/06/13 10:09:48;;;;;;;0.93;0.68;;;;;;;;;;5040968;28;20219;-61
2022/06/13 10:12:47;;;;;;;1.67;0.90;;;;;;;;;;5041395;28;20243;-61
2022/06/13 10:15:41;;;;;;;0.90;0.70;;;;;;;;;;5043690;28;20227;-61
2022/06/13 10:18:42;;;;;;;1.05;0.60;;;;;;;;;;5043810;28;20210;-61
2022/06/13 10:21:38;;;;;;;1.17;0.60;;;;;;;;;;5043043;28;20222;-61
2022/06/13 10:24:34;;;;;;;0.75;0.70;;;;;;;;;;5045873;28;20285;-61
2022/06/13 10:27:31;;;;;;;1.17;0.60;;;;;;;;;;5040160;28;20216;-61
2022/06/13 10:30:22;;;;;;;0.82;0.82;;;;;;;;;;5040422;28;20230;-61
2022/06/13 10:33:24;;;;;;;0.88;0.82;;;;;;;;;;5042036;28;20208;-61
2022/06/13 10:36:17;;;;;;;1.05;0.90;;;;;;;;;;5040754;28;20219;-61
2022/06/13 10:39:07;;;;;;;1.50;0.60;;;;;;;;;;5036490;28;20663;-61
2022/06/13 10:41:59;;;;;;;1.30;0.80;;;;;;;;;;5039464;28;20226;-61
2022/06/13 10:44:46;;;;;;;1.27;0.85;;;;;;;;;;5048604;28;20353;-60
2022/06/13 10:47:37;;;;;;;1.52;0.70;;;;;;;;;;5042771;28;20208;-61
2022/06/13 10:50:29;;;;;;;0.75;0.75;;;;;;;;;;5040342;28;20236;-61
2022/06/13 10:53:20;;;;;;;1.00;0.70;;;;;;;;;;5037277;28;20657;-61
2022/06/13 10:56:12;;;;;;;0.68;0.68;;;;;;;;;;5041806;28;20502;-60
2022/06/13 10:59:00;;;;;;;1.42;0.93;;;;;;;;;;5053942;28;20204;-61
2022/06/13 11:01:56;;;;;;;1.10;0.70;;;;;;;;;;5044062;28;20227;-61
2022/06/13 11:04:43;;;;;;;1.25;0.88;;;;;;;;;;5038359;28;20204;-60
2022/06/13 11:07:30;;;;;;;0.52;0.52;;;;;;;;;;5046321;28;20295;-61
2022/06/13 11:10:27;;;;;;;0.82;0.80;;;;;;;;;;5036651;28;20258;-61
2022/06/13 11:13:17;;;;;;;1.45;0.80;;;;;;;;;;5041363;28;20200;-62
2022/06/13 11:22:39;;;;;;;0.55;0.52;;;;;;;;;;5045801;28;20264;-61
2022/06/13 11:25:28;;;;;;;0.88;0.80;;;;;;;;;;5040885;28;20693;-61
2022/06/13 11:28:21;;;;;;;0.70;0.70;;;;;;;;;;5044435;28;20240;-64
2022/06/13 11:31:18;;;;;;;0.75;0.75;;;;;;;;;;5039631;28;20571;-61
2022/06/13 11:34:25;;;;;;;0.95;0.70;;;;;;;;;;5041124;28;20235;-61
2022/06/13 11:37:18;;;;;;;1.05;0.70;;;;;;;;;;5037642;28;20250;-60
2022/06/13 11:40:16;;;;;;;0.77;0.75;;;;;;;;;;5040868;28;20212;-61
2022/06/13 11:43:03;;;;;;;1.27;0.65;;;;;;;;;;5036955;28;20219;-61
2022/06/13 11:45:56;;;;;;;0.95;0.68;;;;;;;;;;5037396;28;20218;-61
2022/06/13 11:48:49;;;;;;;1.20;0.70;;;;;;;;;;5043226;28;20322;-61
2022/06/13 11:51:42;;;;;;;0.65;0.60;;;;;;;;;;5041392;28;20214;-61
2022/06/13 11:54:32;;;;;;;0.90;0.80;;;;;;;;;;5040443;28;20313;-61
2022/06/13 11:57:34;;;;;;;1.42;1.08;;;;;;;;;;5037000;28;20205;-61
2022/06/13 12:00:30;;;;;;;1.73;0.80;;;;;;;;;;5042106;28;20207;-62
2022/06/13 12:03:21;;;;;;;1.35;0.90;;;;;;;;;;5042615;28;20233;-61
2022/06/13 12:06:13;;;;;;;1.02;0.73;;;;;;;;;;5039130;28;20549;-61
2022/06/13 12:09:03;;;;;;;0.80;0.65;;;;;;;;;;5037075;28;20238;-61
2022/06/13 12:11:55;;;;;;;0.77;0.70;;;;;;;;;;5037759;28;20208;-61
2022/06/13 12:14:43;;;;;;;1.02;0.70;;;;;;;;;;5040578;28;20274;-61
2022/06/13 12:17:35;;;;;;;1.30;0.95;;;;;;;;;;5034462;28;20211;-61
2022/06/13 12:20:33;;;;;;;1.65;1.17;;;;;;;;;;5043733;28;20211;-60
2022/06/13 12:23:29;;;;;;;0.95;0.70;;;;;;;;;;5041313;28;20204;-61
2022/06/13 12:26:23;;;;;;;1.92;0.93;;;;;;;;;;5038991;28;20238;-61
2022/06/13 12:29:28;;;;;;;0.88;0.60;;;;;;;;;;5038624;28;20243;-61
2022/06/13 12:32:21;;;;;;;0.77;0.52;;;;;;;;;;5038765;28;20257;-61
2022/06/13 12:35:28;;;;;;;1.10;1.00;;;;;;;;;;5040147;28;20605;-61
2022/06/13 12:38:39;;;;;;;0.57;0.57;;;;;;;;;;5042364;28;20209;-61
2022/06/13 12:41:33;;;;;;;0.82;0.75;;;;;;;;;;5039687;28;20212;-60
2022/06/13 12:44:37;;;;;;;1.45;0.80;;;;;;;;;;5039147;28;20342;-61
2022/06/13 12:47:43;;;;;;;1.52;0.70;;;;;;;;;;5037256;28;20212;-61
2022/06/13 12:50:59;;;;;;;1.48;1.13;;;;;;;;;;5039261;28;20975;-61
2022/06/13 12:54:22;;;;;;;1.38;0.77;;;;;;;;;;5035971;28;20683;-61
2022/06/13 12:57:19;;;;;;;1.70;0.93;;;;;;;;;;5014645;28;20235;-60
2022/06/13 13:00:14;;;;;;;0.75;0.70;;;;;;;;;;5039529;28;20335;-61
2022/06/13 13:03:25;;;;;;;1.33;0.93;;;;;;;;;;5037987;28;20207;-61
2022/06/13 13:06:18;;;;;;;0.98;0.80;;;;;;;;;;5036734;28;20275;-61
2022/06/13 13:09:19;;;;;;;1.27;0.70;;;;;;;;;;5040406;28;20223;-61
2022/06/13 13:12:27;;;;;;;1.00;0.80;;;;;;;;;;5038996;28;20219;-61
2022/06/13 13:15:21;;;;;;;0.93;0.80;;;;;;;;;;5041895;28;20241;-61
2022/06/13 13:18:19;;;;;;;1.45;0.93;;;;;;;;;;5043702;28;20211;-61
2022/06/13 13:21:11;;;;;;;0.88;0.73;;;;;;;;;;5035118;28;20218;-61
2022/06/13 13:24:11;;;;;;;0.93;0.90;;;;;;;;;;5034068;28;20214;-61
2022/06/13 13:27:03;;;;;;;0.52;0.50;;;;;;;;;;5037266;28;20215;-61
2022/06/13 13:30:02;;;;;;;1.73;1.10;;;;;;;;;;5037564;28;20223;-61
2022/06/13 13:33:04;;;;;;;1.30;1.10;;;;;;;;;;5039748;28;20326;-61
2022/06/13 13:35:56;;;;;;;2.22;0.98;;;;;;;;;;5032180;28;20234;-61
2022/06/13 13:38:48;;;;;;;1.15;0.73;;;;;;;;;;5041151;28;20695;-61
2022/06/13 13:41:40;;;;;;;1.95;1.13;;;;;;;;;;5033390;28;20223;-61
2022/06/13 13:44:34;;;;;;;1.07;0.90;;;;;;;;;;5020620;28;20207;-61
2022/06/13 13:47:24;;;;;;;0.97;0.90;;;;;;;;;;5019078;28;20680;-61
2022/06/13 13:50:18;;;;;;;0.80;0.80;;;;;;;;;;5039321;28;20234;-61
2022/06/13 13:53:10;;;;;;;1.60;1.00;;;;;;;;;;5037653;28;20746;-61
2022/06/13 13:56:08;;;;;;;1.10;0.63;;;;;;;;;;5038807;28;20312;-61
2022/06/13 13:58:57;;;;;;;1.63;0.70;;;;;;;;;;5039645;28;20258;-61
2022/06/13 14:01:56;;;;;;;1.33;1.07;;;;;;;;;;5038728;28;20259;-61
2022/06/13 14:05:00;;;;;;;1.47;0.90;;;;;;;;;;5042189;28;20201;-61
2022/06/13 14:08:03;;;;;;;1.83;0.93;;;;;;;;;;5035388;28;20371;-61
2022/06/13 14:10:53;;;;;;;1.77;0.90;;;;;;;;;;5037555;28;20213;-61
2022/06/13 14:13:42;;;;;;;1.03;0.90;;;;;;;;;;5041085;28;20679;-61
2022/06/13 14:16:40;;;;;;;1.33;0.90;;;;;;;;;;5039632;28;20714;-61
2022/06/13 14:19:31;;;;;;;0.80;0.80;;;;;;;;;;5039487;28;20214;-59
2022/06/13 14:22:23;;;;;;;0.60;0.60;;;;;;;;;;5049553;28;20919;-61
2022/06/13 14:25:22;;;;;;;1.67;1.17;;;;;;;;;;5042833;28;20204;-61
2022/06/13 14:28:13;;;;;;;0.83;0.80;;;;;;;;;;5040939;28;20235;-61
2022/06/13 14:31:04;;;;;;;0.93;0.90;;;;;;;;;;5043836;28;20215;-60
2022/06/13 14:37:14;;;;;;;1.20;1.00;;;;;;;;;;5038530;28;20233;-61
2022/06/13 14:40:09;;;;;;;1.50;0.87;;;;;;;;;;5040667;28;20647;-61
2022/06/13 14:43:00;;;;;;;1.17;0.80;;;;;;;;;;5038915;28;20215;-61
2022/06/13 14:45:52;;;;;;;1.73;1.10;;;;;;;;;;5042241;28;20231;-60
2022/06/13 14:48:42;;;;;;;0.80;0.80;;;;;;;;;;5044281;28;20214;-61
2022/06/13 14:51:32;;;;;;;2.07;1.03;;;;;;;;;;5042122;28;20212;-60
2022/06/13 14:54:43;;;;;;;2.13;1.17;;;;;;;;;;5039742;28;20269;-61
2022/06/13 14:57:50;;;;;;;1.63;1.07;;;;;;;;;;5037869;28;20212;-61
2022/06/13 15:00:37;;;;;;;1.13;0.70;;;;;;;;;;5038662;28;20309;-61
2022/06/13 15:03:24;;;;;;;1.73;0.80;;;;;;;;;;5043372;28;20204;-61
2022/06/13 15:06:14;;;;;;;1.60;0.83;;;;;;;;;;5040699;28;20214;-60
2022/06/13 15:09:15;;;;;;;1.27;0.80;;;;;;;;;;5038415;28;20212;-61
2022/06/13 15:12:10;;;;;;;1.47;0.97;;;;;;;;;;5039653;28;20315;-60
2022/06/13 15:15:02;;;;;;;1.40;0.70;;;;;;;;;;5043910;28;20238;-61
2022/06/13 15:17:49;;;;;;;1.77;1.10;;;;;;;;;;5041983;28;20206;-61
2022/06/13 15:20:44;;;;;;;0.80;0.80;;;;;;;;;;5036547;28;20233;-60
2022/06/13 15:23:36;;;;;;;1.73;1.00;;;;;;;;;;5044195;28;20205;-61
2022/06/13 15:26:26;;;;;;;1.20;0.93;;;;;;;;;;5039544;28;20282;-60
2022/06/13 15:29:22;;;;;;;1.10;0.90;;;;;;;;;;5039646;28;20242;-66
2022/06/13 15:32:26;;;;;;;1.17;0.80;;;;;;;;;;5040148;28;20200;-60
2022/06/13 15:35:15;;;;;;;0.87;0.73;;;;;;;;;;5036260;28;20222;-61
2022/06/13 15:38:03;;;;;;;1.33;0.90;;;;;;;;;;5040219;28;20289;-61
2022/06/13 15:40:57;;;;;;;1.63;0.70;;;;;;;;;;5034457;28;20212;-61
2022/06/13 15:43:47;;;;;;;1.27;0.80;;;;;;;;;;5040906;28;20209;-61
2022/06/13 15:46:39;;;;;;;2.47;0.93;;;;;;;;;;5046424;28;20217;-61
2022/06/13 15:49:30;;;;;;;1.80;1.10;;;;;;;;;;5045115;28;20214;-60
2022/06/13 15:52:23;;;;;;;0.80;0.80;;;;;;;;;;5038713;28;20214;-61
2022/06/13 15:55:13;;;;;;;1.33;0.90;;;;;;;;;;5036323;28;20596;-61
2022/06/13 15:58:01;;;;;;;1.90;0.97;;;;;;;;;;5041541;28;20294;-60
2022/06/13 16:00:49;;;;;;;1.67;1.10;;;;;;;;;;5038839;28;20237;-61
2022/06/13 16:03:38;;;;;;;0.93;0.80;;;;;;;;;;5043597;28;20276;-61
2022/06/13 16:06:37;;;;;;;1.10;0.90;;;;;;;;;;5049152;28;20191;-66
2022/06/13 16:09:28;;;;;;;0.83;0.67;;;;;;;;;;5052920;28;20211;-61
2022/06/13 16:12:18;;;;;;;1.37;1.10;;;;;;;;;;5040055;28;20658;-63
2022/06/13 16:15:08;;;;;;;0.87;0.87;;;;;;;;;;5051707;28;20938;-61
2022/06/13 16:17:57;;;;;;;0.60;0.60;;;;;;;;;;5040844;28;20213;-61
2022/06/13 16:20:45;;;;;;;0.97;0.80;;;;;;;;;;5040798;28;20220;-61
2022/06/13 16:23:37;;;;;;;1.17;0.97;;;;;;;;;;5044329;28;20212;-61
2022/06/13 16:26:28;;;;;;;1.40;1.03;;;;;;;;;;5041600;28;20201;-61
2022/06/13 16:29:17;;;;;;;2.20;1.17;;;;;;;;;;5044460;28;20282;-61
2022/06/13 16:32:07;;;;;;;1.90;0.90;;;;;;;;;;5040698;28;20212;-60
2022/06/13 16:34:57;;;;;;;1.63;0.90;;;;;;;;;;5034902;28;20404;-60
2022/06/13 16:37:56;;;;;;;1.10;1.00;;;;;;;;;;5036987;28;20211;-61
2022/06/13 16:40:48;;;;;;;1.93;1.20;;;;;;;;;;5037883;28;20213;-61
2022/06/13 16:43:34;;;;;;;1.93;1.40;;;;;;;;;;5039471;28;20250;-61
2022/06/13 16:46:22;;;;;;;1.20;1.10;;;;;;;;;;5039964;28;20319;-61
2022/06/13 16:49:09;;;;;;;1.90;1.00;;;;;;;;;;5036525;28;20588;-61
2022/06/13 16:52:01;;;;;;;1.57;0.97;;;;;;;;;;5039507;28;20210;-60
2022/06/13 16:54:52;;;;;;;1.30;1.00;;;;;;;;;;5038533;28;20213;-61
2022/06/13 16:57:52;;;;;;;1.23;1.00;;;;;;;;;;5036649;28;20636;-60
2022/06/13 17:00:40;;;;;;;2.80;1.10;;;;;;;;;;5039815;28;20221;-61
2022/06/13 17:03:52;;;;;;;1.13;1.03;;;;;;;;;;5039183;28;20239;-61
2022/06/13 17:06:42;;;;;;;1.23;0.93;;;;;;;;;;5041584;28;20658;-60
2022/06/13 17:09:29;;;;;;;2.03;1.13;;;;;;;;;;5040300;28;20203;-60
2022/06/13 17:12:16;;;;;;;1.40;1.10;;;;;;;;;;5042839;28;20203;-60
2022/06/13 17:15:05;;;;;;;1.40;1.20;;;;;;;;;;5043892;28;20256;-60
2022/06/13 17:17:53;;;;;;;1.60;1.00;;;;;;;;;;5035377;28;20228;-61
2022/06/13 17:20:43;;;;;;;2.20;1.30;;;;;;;;;;5036918;28;20223;-60
2022/06/13 17:23:33;;;;;;;1.10;0.90;;;;;;;;;;5041102;28;20286;-61
2022/06/13 17:32:31;;;;;;;1.47;1.00;;;;;;;;;;5040255;28;20693;-61
2022/06/13 17:35:18;;;;;;;1.73;1.27;;;;;;;;;;5039961;28;20227;-60
2022/06/13 17:38:05;;;;;;;1.27;1.00;;;;;;;;;;5036229;28;20231;-60
2022/06/13 17:40:52;;;;;;;1.43;0.97;;;;;;;;;;5036808;28;20246;-61
2022/06/13 17:43:39;;;;;;;2.50;1.07;;;;;;;;;;5045060;28;20295;-61